createdAt,value
2023-05-24T00:00:09.550Z,10.40
2023-05-24T00:02:37.958Z,10.23
2023-05-24T00:05:05.405Z,10.34
2023-05-24T00:07:31.862Z,10.28
2023-05-24T00:09:58.299Z,10.35
2023-05-24T00:12:25.056Z,10.25
2023-05-24T00:14:51.790Z,10.25
2023-05-24T00:17:18.230Z,10.37
2023-05-24T00:19:44.625Z,10.51
2023-05-24T00:22:11.919Z,10.38
2023-05-24T00:24:38.345Z,10.39
2023-05-24T00:27:04.954Z,10.30
2023-05-24T00:29:32.380Z,10.51
2023-05-24T00:31:58.905Z,10.27
2023-05-24T00:34:25.329Z,10.46
2023-05-24T00:36:51.812Z,10.54
2023-05-24T00:39:18.213Z,10.84
2023-05-24T00:41:44.618Z,10.66
2023-05-24T00:44:11.304Z,10.51
2023-05-24T00:46:38.173Z,10.59
2023-05-24T00:49:04.805Z,10.41
2023-05-24T00:51:32.538Z,10.67
2023-05-24T00:53:59.525Z,10.61
2023-05-24T00:56:27.822Z,10.45
2023-05-24T00:58:57.108Z,10.60
2023-05-24T01:01:26.549Z,10.58
2023-05-24T01:03:54.435Z,10.77
2023-05-24T01:06:21.699Z,10.71
2023-05-24T01:08:54.224Z,10.58
2023-05-24T01:11:50.798Z,10.28
2023-05-24T01:14:29.223Z,10.33
2023-05-24T01:17:04.142Z,10.52
2023-05-24T01:19:51.341Z,10.26
2023-05-24T01:22:50.847Z,10.41
2023-05-24T01:25:28.324Z,10.42
2023-05-24T01:27:55.278Z,10.27
2023-05-24T01:30:22.211Z,10.20
2023-05-24T01:32:49.098Z,10.38
2023-05-24T01:35:15.653Z,10.48
2023-05-24T01:37:42.058Z,10.40
2023-05-24T01:40:09.201Z,10.37
2023-05-24T01:42:46.408Z,10.52
2023-05-24T01:45:31.229Z,10.63
2023-05-24T01:48:18.714Z,10.28
2023-05-24T01:51:04.995Z,10.40
2023-05-24T01:53:41.566Z,10.71
2023-05-24T01:56:09.981Z,10.51
2023-05-24T01:58:37.518Z,10.10
2023-05-24T02:01:04.040Z,10.50
2023-05-24T02:03:31.333Z,10.26
2023-05-24T02:05:57.825Z,10.57
2023-05-24T02:08:24.234Z,10.58
2023-05-24T02:10:50.650Z,10.33
2023-05-24T02:13:18.219Z,10.46
2023-05-24T02:15:44.849Z,10.59
2023-05-24T02:18:11.358Z,10.56
2023-05-24T02:20:37.939Z,10.35
2023-05-24T02:23:04.453Z,10.13
2023-05-24T02:25:32.114Z,10.22
2023-05-24T02:27:59.580Z,10.25
2023-05-24T02:30:27.125Z,10.11
2023-05-24T02:32:53.618Z,10.29
2023-05-24T02:35:20.621Z,10.28
2023-05-24T02:37:47.073Z,10.41
2023-05-24T02:40:13.529Z,10.28
2023-05-24T02:42:39.988Z,10.27
2023-05-24T02:45:07.062Z,10.05
2023-05-24T02:47:33.559Z,10.29
2023-05-24T02:49:59.985Z,10.49
2023-05-24T02:52:26.720Z,10.14
2023-05-24T02:54:53.139Z,10.13
2023-05-24T02:57:19.553Z,10.36
2023-05-24T02:59:45.956Z,10.09
2023-05-24T03:02:13.743Z,10.14
2023-05-24T03:04:40.367Z,9.86
2023-05-24T03:07:06.792Z,10.09
2023-05-24T03:09:33.474Z,9.82
2023-05-24T03:11:59.902Z,10.26
2023-05-24T03:14:26.307Z,10.02
2023-05-24T03:16:52.751Z,10.33
2023-05-24T03:19:19.197Z,9.87
2023-05-24T03:21:45.612Z,10.13
2023-05-24T03:24:13.183Z,10.25
2023-05-24T03:26:42.608Z,10.14
2023-05-24T03:29:09.065Z,9.81
2023-05-24T03:31:35.558Z,9.97
2023-05-24T03:34:02.024Z,10.00
2023-05-24T03:36:29.219Z,9.92
2023-05-24T03:38:58.172Z,10.30
2023-05-24T03:41:24.820Z,9.98
2023-05-24T03:43:52.622Z,10.12
2023-05-24T03:46:19.135Z,10.10
2023-05-24T03:48:45.620Z,10.25
2023-05-24T03:51:12.036Z,10.04
2023-05-24T03:53:38.459Z,10.13
2023-05-24T03:56:04.936Z,9.88
2023-05-24T03:58:31.376Z,9.94
2023-05-24T04:00:57.787Z,10.11
2023-05-24T04:03:26.020Z,9.87
2023-05-24T04:05:53.782Z,10.13
2023-05-24T04:08:20.210Z,10.11
2023-05-24T04:10:46.631Z,10.09
2023-05-24T04:13:13.042Z,10.40
2023-05-24T04:15:39.462Z,10.45
2023-05-24T04:18:06.023Z,10.68
2023-05-24T04:20:32.700Z,10.18
2023-05-24T04:22:59.223Z,10.29
2023-05-24T04:25:26.824Z,10.39
2023-05-24T04:27:53.572Z,10.62
2023-05-24T04:30:21.254Z,10.91
2023-05-24T04:32:48.504Z,10.65
2023-05-24T04:35:15.491Z,10.53
2023-05-24T04:37:42.209Z,10.09
2023-05-24T04:40:09.311Z,10.15
2023-05-24T04:42:35.793Z,10.08
2023-05-24T04:45:02.901Z,10.36
2023-05-24T04:47:29.809Z,10.19
2023-05-24T04:49:56.296Z,10.06
2023-05-24T04:52:22.756Z,10.16
2023-05-24T04:54:49.939Z,10.02
2023-05-24T04:57:16.511Z,10.15
2023-05-24T04:59:43.620Z,10.09
2023-05-24T05:02:10.211Z,10.12
2023-05-24T05:04:36.675Z,10.35
2023-05-24T05:07:03.813Z,10.64
2023-05-24T05:09:30.440Z,10.16
2023-05-24T05:11:56.889Z,10.28
2023-05-24T05:14:23.303Z,10.21
2023-05-24T05:16:49.894Z,10.07
2023-05-24T05:19:16.521Z,10.63
2023-05-24T05:21:42.960Z,10.22
2023-05-24T05:24:09.574Z,10.27
2023-05-24T05:26:36.025Z,10.53
2023-05-24T05:29:02.479Z,10.26
2023-05-24T05:31:29.676Z,10.29
2023-05-24T05:33:56.209Z,10.39
2023-05-24T05:36:22.725Z,10.28
2023-05-24T05:38:49.135Z,10.38
2023-05-24T05:41:15.683Z,10.18
2023-05-24T05:43:42.103Z,9.89
2023-05-24T05:46:08.592Z,10.59
2023-05-24T05:48:35.045Z,10.66
2023-05-24T05:51:01.462Z,10.67
2023-05-24T05:53:27.882Z,10.41
2023-05-24T05:55:54.390Z,10.69
2023-05-24T05:58:21.013Z,10.34
2023-05-24T06:00:47.421Z,10.63
2023-05-24T06:03:14.028Z,11.03
2023-05-24T06:05:40.623Z,10.43
2023-05-24T06:08:07.039Z,11.24
2023-05-24T06:10:33.540Z,10.72
2023-05-24T06:13:02.965Z,10.76
2023-05-24T06:15:29.494Z,10.76
2023-05-24T06:17:55.944Z,10.77
2023-05-24T06:20:22.989Z,11.07
2023-05-24T06:22:50.633Z,10.74
2023-05-24T06:25:19.532Z,11.15
2023-05-24T06:27:46.091Z,10.71
2023-05-24T06:30:13.446Z,10.66
2023-05-24T06:32:40.123Z,11.29
2023-05-24T06:35:07.858Z,10.83
2023-05-24T06:37:34.450Z,11.49
2023-05-24T06:40:00.979Z,11.25
2023-05-24T06:42:27.461Z,10.85
2023-05-24T06:44:54.232Z,11.03
2023-05-24T06:47:22.252Z,10.88
2023-05-24T06:49:49.946Z,10.86
2023-05-24T06:52:16.658Z,11.10
2023-05-24T06:54:43.128Z,11.52
2023-05-24T06:57:09.542Z,11.37
2023-05-24T06:59:36.311Z,11.02
2023-05-24T07:02:04.156Z,11.68
2023-05-24T07:04:31.207Z,11.11
2023-05-24T07:06:58.321Z,10.90
2023-05-24T07:09:24.942Z,11.29
2023-05-24T07:11:51.498Z,11.02
2023-05-24T07:14:17.905Z,11.68
2023-05-24T07:16:44.349Z,11.72
2023-05-24T07:19:10.826Z,11.10
2023-05-24T07:21:37.573Z,11.59
2023-05-24T07:24:04.338Z,11.31
2023-05-24T07:26:30.821Z,12.12
2023-05-24T07:28:57.313Z,12.75
2023-05-24T07:31:23.760Z,11.81
2023-05-24T07:33:50.196Z,11.94
2023-05-24T07:36:16.613Z,12.07
2023-05-24T07:38:43.515Z,12.14
2023-05-24T07:41:09.954Z,11.69
2023-05-24T07:43:37.585Z,11.62
2023-05-24T07:46:04.366Z,11.91
2023-05-24T07:48:31.141Z,11.97
2023-05-24T07:50:57.585Z,11.92
2023-05-24T07:53:24.077Z,12.00
2023-05-24T07:55:51.701Z,11.77
2023-05-24T07:58:18.150Z,12.20
2023-05-24T08:00:44.586Z,11.92
2023-05-24T08:03:14.445Z,11.88
2023-05-24T08:05:41.118Z,12.64
2023-05-24T08:08:07.860Z,12.49
2023-05-24T08:10:34.484Z,12.02
2023-05-24T08:13:01.101Z,12.04
2023-05-24T08:15:27.497Z,12.42
2023-05-24T08:17:53.981Z,12.72
2023-05-24T08:20:20.936Z,13.15
2023-05-24T08:22:48.576Z,12.59
2023-05-24T08:25:15.385Z,12.69
2023-05-24T08:27:41.856Z,12.14
2023-05-24T08:30:08.756Z,11.56
2023-05-24T08:32:35.356Z,12.08
2023-05-24T08:35:18.404Z,11.87
2023-05-24T08:37:46.056Z,12.14
2023-05-24T08:40:12.791Z,12.47
2023-05-24T08:42:39.814Z,12.97
2023-05-24T08:45:12.548Z,12.83
2023-05-24T08:47:39.887Z,12.34
2023-05-24T08:50:07.296Z,12.27
2023-05-24T08:52:34.184Z,12.36
2023-05-24T08:55:01.478Z,12.55
2023-05-24T08:57:28.098Z,12.45
2023-05-24T08:59:56.216Z,12.26
2023-05-24T09:02:23.786Z,12.87
2023-05-24T09:04:52.808Z,12.24
2023-05-24T09:07:24.051Z,12.45
2023-05-24T09:09:57.959Z,12.55
2023-05-24T09:12:36.297Z,11.93
2023-05-24T09:15:06.617Z,13.08
2023-05-24T09:17:34.759Z,12.50
2023-05-24T09:20:01.526Z,12.18
2023-05-24T09:22:30.565Z,12.85
2023-05-24T09:25:08.036Z,12.65
2023-05-24T09:27:35.171Z,12.74
2023-05-24T09:30:03.365Z,13.31
2023-05-24T09:32:31.508Z,13.17
2023-05-24T09:34:59.024Z,12.54
2023-05-24T09:37:32.729Z,13.09
2023-05-24T09:40:00.063Z,12.85
2023-05-24T09:42:28.787Z,12.88
2023-05-24T09:45:09.345Z,13.33
2023-05-24T09:47:37.626Z,13.23
2023-05-24T09:50:06.900Z,13.25
2023-05-24T09:52:37.077Z,13.95
2023-05-24T09:55:20.242Z,13.43
2023-05-24T09:57:53.135Z,13.42
2023-05-24T10:00:23.747Z,13.80
2023-05-24T10:03:13.669Z,12.48
2023-05-24T10:05:46.913Z,13.20
2023-05-24T10:08:14.468Z,12.98
2023-05-24T10:10:42.784Z,14.14
2023-05-24T10:13:10.346Z,13.80
2023-05-24T10:15:36.793Z,13.94
2023-05-24T10:18:10.375Z,13.51
2023-05-24T10:20:41.148Z,14.30
2023-05-24T10:23:10.159Z,15.90
2023-05-24T10:25:41.119Z,13.56
2023-05-24T10:28:12.657Z,14.23
2023-05-24T10:30:52.404Z,14.22
2023-05-24T10:33:21.109Z,15.18
2023-05-24T10:35:47.709Z,15.58
2023-05-24T10:38:14.281Z,15.73
2023-05-24T10:40:42.732Z,15.12
2023-05-24T10:43:10.134Z,14.71
2023-05-24T10:45:39.119Z,15.48
2023-05-24T10:48:15.543Z,15.27
2023-05-24T10:50:43.071Z,14.52
2023-05-24T10:53:13.273Z,14.94
2023-05-24T10:55:57.268Z,13.81
2023-05-24T10:58:42.495Z,14.67
2023-05-24T11:01:27.012Z,15.41
2023-05-24T11:04:05.040Z,15.18
2023-05-24T11:06:54.159Z,14.61
2023-05-24T11:09:21.059Z,13.61
2023-05-24T11:11:54.744Z,14.20
2023-05-24T11:14:27.712Z,14.19
2023-05-24T11:16:54.772Z,14.61
2023-05-24T11:19:30.743Z,14.43
2023-05-24T11:22:01.301Z,15.36
2023-05-24T11:24:28.968Z,15.20
2023-05-24T11:26:57.187Z,15.76
2023-05-24T11:29:24.219Z,15.83
2023-05-24T11:32:04.285Z,15.64
2023-05-24T11:34:32.104Z,16.10
2023-05-24T11:37:00.423Z,15.77
2023-05-24T11:39:35.474Z,15.72
2023-05-24T11:42:06.347Z,16.35
2023-05-24T11:44:33.496Z,15.91
2023-05-24T11:47:05.149Z,15.59
2023-05-24T11:49:31.593Z,16.31
2023-05-24T11:51:59.088Z,16.53
2023-05-24T11:54:27.333Z,16.24
2023-05-24T11:56:54.508Z,16.46
2023-05-24T11:59:26.041Z,15.45
2023-05-24T12:02:03.080Z,14.83
2023-05-24T12:04:30.962Z,15.56
2023-05-24T12:06:58.016Z,14.80
2023-05-24T12:09:25.217Z,15.54
2023-05-24T12:11:52.759Z,15.73
2023-05-24T12:14:23.582Z,15.30
2023-05-24T12:16:50.440Z,15.56
2023-05-24T12:19:31.846Z,15.25
2023-05-24T12:22:01.073Z,15.73
2023-05-24T12:24:28.107Z,15.67
2023-05-24T12:27:01.688Z,15.18
2023-05-24T12:29:33.117Z,16.04
2023-05-24T12:31:59.781Z,15.85
2023-05-24T12:34:26.477Z,16.11
2023-05-24T12:36:53.359Z,16.78
2023-05-24T12:39:36.763Z,16.39
2023-05-24T12:42:04.397Z,15.90
2023-05-24T12:44:32.917Z,17.32
2023-05-24T12:47:01.501Z,17.93
2023-05-24T12:49:28.184Z,17.25
2023-05-24T12:51:55.697Z,18.13
2023-05-24T12:54:26.764Z,17.28
2023-05-24T12:56:56.619Z,16.07
2023-05-24T12:59:23.646Z,15.98
2023-05-24T13:01:53.421Z,16.80
2023-05-24T13:04:21.853Z,15.75
2023-05-24T13:06:48.858Z,16.48
2023-05-24T13:09:18.089Z,15.60
2023-05-24T19:54:57.739Z,13.08
2023-05-24T19:57:24.163Z,13.09
2023-05-24T19:59:50.563Z,13.15
2023-05-24T20:02:16.998Z,13.11
2023-05-24T20:04:43.989Z,13.05
2023-05-24T20:07:10.821Z,13.08
2023-05-24T20:09:37.318Z,13.00
2023-05-24T20:12:04.484Z,13.00
2023-05-24T20:14:31.605Z,13.15
2023-05-24T20:16:58.726Z,13.10
2023-05-24T20:19:26.191Z,13.12
2023-05-24T20:21:52.962Z,12.92
2023-05-24T20:24:19.467Z,13.05
2023-05-24T20:26:45.952Z,13.09
2023-05-24T20:29:12.368Z,13.10
2023-05-24T20:31:39.137Z,12.99
2023-05-24T20:34:05.606Z,12.96
2023-05-24T20:36:32.830Z,12.95
2023-05-24T20:38:59.375Z,12.91
2023-05-24T20:44:26.684Z,12.75
2023-05-24T20:47:34.836Z,12.74
2023-05-24T20:49:59.173Z,12.78
2023-05-24T20:52:25.579Z,12.80
2023-05-24T20:54:52.018Z,12.76
2023-05-24T20:57:18.443Z,12.70
2023-05-24T20:59:44.919Z,12.86
2023-05-24T21:02:11.370Z,12.74
2023-05-24T21:04:37.862Z,12.83
2023-05-24T21:07:04.466Z,12.69
2023-05-24T21:09:30.891Z,12.64
2023-05-24T21:11:57.327Z,12.53
2023-05-24T21:14:23.715Z,12.63
2023-05-24T21:16:50.137Z,12.68
2023-05-24T21:19:16.609Z,12.51
2023-05-24T21:21:43.053Z,12.58
2023-05-24T21:24:09.446Z,12.57
2023-05-24T21:26:35.875Z,12.52
2023-05-24T21:29:02.299Z,12.29
2023-05-24T21:31:30.035Z,12.38
2023-05-24T21:33:56.760Z,12.27
2023-05-24T21:36:23.230Z,12.28
2023-05-24T21:38:49.666Z,12.18
2023-05-24T21:41:16.087Z,12.08
2023-05-24T21:43:42.853Z,12.14
2023-05-24T21:46:09.352Z,12.12
2023-05-24T21:48:35.764Z,12.08
2023-05-24T21:51:02.236Z,12.06
2023-05-24T21:53:28.633Z,11.91
2023-05-24T21:55:55.060Z,11.93
2023-05-24T21:58:21.521Z,11.89
2023-05-24T22:00:47.950Z,11.93
2023-05-24T22:03:14.658Z,11.94
2023-05-24T22:05:41.163Z,11.83
2023-05-24T22:08:07.615Z,11.83
2023-05-24T22:10:34.193Z,11.67
2023-05-24T22:13:01.475Z,11.67
2023-05-24T22:15:28.311Z,11.84
2023-05-24T22:17:58.517Z,11.77
2023-05-24T22:20:26.208Z,11.60
2023-05-24T22:22:53.642Z,11.61
2023-05-24T22:25:20.924Z,11.48
2023-05-24T22:27:51.385Z,11.36
2023-05-24T22:30:17.883Z,11.33
2023-05-24T22:32:44.367Z,11.26
2023-05-24T22:35:10.913Z,11.39
2023-05-24T22:37:37.425Z,11.42
2023-05-24T22:40:04.763Z,11.46
2023-05-24T22:42:31.722Z,11.15
2023-05-24T22:44:58.141Z,11.32
2023-05-24T22:47:24.695Z,11.33
2023-05-24T22:49:54.101Z,11.30
2023-05-24T22:52:20.799Z,11.52
2023-05-24T22:54:47.256Z,11.29
2023-05-24T22:57:13.657Z,11.35
2023-05-24T22:59:40.087Z,11.49
2023-05-24T23:02:06.651Z,11.36
2023-05-24T23:04:33.554Z,11.38
2023-05-24T23:07:01.556Z,11.48
2023-05-24T23:09:34.713Z,11.39
2023-05-24T23:12:07.206Z,11.46
2023-05-24T23:14:38.250Z,11.43
2023-05-24T23:17:06.682Z,11.52
2023-05-24T23:19:33.261Z,11.60
2023-05-24T23:21:59.747Z,11.54
2023-05-24T23:24:26.833Z,11.40
2023-05-24T23:26:55.743Z,11.45
2023-05-24T23:29:22.443Z,11.50
2023-05-24T23:31:48.924Z,11.33
2023-05-24T23:34:15.499Z,11.32
2023-05-24T23:36:41.964Z,11.44
2023-05-24T23:39:10.975Z,11.53
2023-05-24T23:41:37.437Z,11.47
2023-05-24T23:44:03.875Z,11.38
2023-05-24T23:46:30.328Z,11.49
2023-05-24T23:48:56.821Z,11.52
2023-05-24T23:51:23.299Z,11.56
2023-05-24T23:53:49.733Z,11.30
2023-05-24T23:56:16.367Z,11.10
2023-05-24T23:58:43.834Z,11.45
